sensor_id;sensor_type;location;lat;lon;timestamp;temperature;humidity
37998;DHT22;24079;51.824;4.682;2024-01-27T00:01:35;5.40;99.90
37998;DHT22;24079;51.824;4.682;2024-01-27T00:04:01;5.40;99.90
37998;DHT22;24079;51.824;4.682;2024-01-27T00:06:27;5.30;99.90
37998;DHT22;24079;51.824;4.682;2024-01-27T00:08:53;5.40;99.90
37998;DHT22;24079;51.824;4.682;2024-01-27T00:11:19;5.30;99.90
37998;DHT22;24079;51.824;4.682;2024-01-27T00:13:45;5.30;99.90
37998;DHT22;24079;51.824;4.682;2024-01-27T00:16:11;5.30;99.90
37998;DHT22;24079;51.824;4.682;2024-01-27T00:18:37;5.30;99.90
37998;DHT22;24079;51.824;4.682;2024-01-27T00:21:04;5.30;99.90
37998;DHT22;24079;51.824;4.682;2024-01-27T00:23:29;5.30;99.90
37998;DHT22;24079;51.824;4.682;2024-01-27T00:25:55;5.40;99.90
37998;DHT22;24079;51.824;4.682;2024-01-27T00:28:20;5.30;99.90
37998;DHT22;24079;51.824;4.682;2024-01-27T00:30:46;5.40;99.90
37998;DHT22;24079;51.824;4.682;2024-01-27T00:33:12;5.40;99.90
37998;DHT22;24079;51.824;4.682;2024-01-27T00:35:37;5.40;99.90
37998;DHT22;24079;51.824;4.682;2024-01-27T00:38:03;5.20;99.90
37998;DHT22;24079;51.824;4.682;2024-01-27T00:40:29;5.30;99.90
37998;DHT22;24079;51.824;4.682;2024-01-27T00:42:55;5.30;99.90
37998;DHT22;24079;51.824;4.682;2024-01-27T00:45:20;5.50;99.90
37998;DHT22;24079;51.824;4.682;2024-01-27T00:47:49;5.30;99.90
37998;DHT22;24079;51.824;4.682;2024-01-27T00:50:15;5.20;99.90
37998;DHT22;24079;51.824;4.682;2024-01-27T00:52:41;5.20;99.90
37998;DHT22;24079;51.824;4.682;2024-01-27T00:55:07;5.10;99.90
37998;DHT22;24079;51.824;4.682;2024-01-27T00:57:33;5.10;99.90
37998;DHT22;24079;51.824;4.682;2024-01-27T00:59:58;5.00;99.90
37998;DHT22;24079;51.824;4.682;2024-01-27T01:02:24;5.00;99.90
37998;DHT22;24079;51.824;4.682;2024-01-27T01:04:49;5.10;99.90
37998;DHT22;24079;51.824;4.682;2024-01-27T01:07:15;5.00;99.90
37998;DHT22;24079;51.824;4.682;2024-01-27T01:09:41;5.10;99.90
37998;DHT22;24079;51.824;4.682;2024-01-27T01:12:07;5.10;99.90
37998;DHT22;24079;51.824;4.682;2024-01-27T01:14:32;5.00;99.90
37998;DHT22;24079;51.824;4.682;2024-01-27T01:16:58;5.00;99.90
37998;DHT22;24079;51.824;4.682;2024-01-27T01:19:23;5.00;99.90
37998;DHT22;24079;51.824;4.682;2024-01-27T01:21:49;5.00;99.90
37998;DHT22;24079;51.824;4.682;2024-01-27T01:24:15;5.00;99.90
37998;DHT22;24079;51.824;4.682;2024-01-27T01:26:40;5.00;99.90
37998;DHT22;24079;51.824;4.682;2024-01-27T01:29:06;5.00;99.90
37998;DHT22;24079;51.824;4.682;2024-01-27T01:31:32;5.00;99.90
37998;DHT22;24079;51.824;4.682;2024-01-27T01:33:57;5.00;99.90
37998;DHT22;24079;51.824;4.682;2024-01-27T01:36:23;4.90;99.90
37998;DHT22;24079;51.824;4.682;2024-01-27T01:38:49;4.90;99.90
37998;DHT22;24079;51.824;4.682;2024-01-27T01:41:14;4.90;99.90
37998;DHT22;24079;51.824;4.682;2024-01-27T01:43:40;4.90;99.90
37998;DHT22;24079;51.824;4.682;2024-01-27T01:46:06;4.80;99.90
37998;DHT22;24079;51.824;4.682;2024-01-27T01:48:31;4.90;99.90
37998;DHT22;24079;51.824;4.682;2024-01-27T01:50:59;4.90;99.90
37998;DHT22;24079;51.824;4.682;2024-01-27T01:53:25;4.90;99.90
37998;DHT22;24079;51.824;4.682;2024-01-27T01:55:52;4.90;99.90
37998;DHT22;24079;51.824;4.682;2024-01-27T01:58:18;4.90;99.90
37998;DHT22;24079;51.824;4.682;2024-01-27T02:00:44;4.80;99.90
37998;DHT22;24079;51.824;4.682;2024-01-27T02:03:13;4.80;99.90
37998;DHT22;24079;51.824;4.682;2024-01-27T02:05:39;4.70;99.90
37998;DHT22;24079;51.824;4.682;2024-01-27T02:08:05;4.70;99.90
37998;DHT22;24079;51.824;4.682;2024-01-27T02:10:31;4.70;99.90
37998;DHT22;24079;51.824;4.682;2024-01-27T02:13:23;4.60;99.90
37998;DHT22;24079;51.824;4.682;2024-01-27T02:15:49;4.70;99.90
37998;DHT22;24079;51.824;4.682;2024-01-27T02:18:15;4.80;99.90
37998;DHT22;24079;51.824;4.682;2024-01-27T02:20:42;4.70;99.90
37998;DHT22;24079;51.824;4.682;2024-01-27T02:23:08;4.70;99.90
37998;DHT22;24079;51.824;4.682;2024-01-27T02:25:35;4.70;99.90
37998;DHT22;24079;51.824;4.682;2024-01-27T02:28:01;4.70;99.90
37998;DHT22;24079;51.824;4.682;2024-01-27T02:30:30;4.70;99.90
37998;DHT22;24079;51.824;4.682;2024-01-27T02:32:57;4.60;99.90
37998;DHT22;24079;51.824;4.682;2024-01-27T02:35:23;4.60;99.90
37998;DHT22;24079;51.824;4.682;2024-01-27T02:37:49;4.60;99.90
37998;DHT22;24079;51.824;4.682;2024-01-27T02:40:14;4.60;99.90
37998;DHT22;24079;51.824;4.682;2024-01-27T02:42:40;4.80;99.90
37998;DHT22;24079;51.824;4.682;2024-01-27T02:45:10;4.80;99.90
37998;DHT22;24079;51.824;4.682;2024-01-27T02:47:37;4.70;99.90
37998;DHT22;24079;51.824;4.682;2024-01-27T02:50:02;4.70;99.90
37998;DHT22;24079;51.824;4.682;2024-01-27T02:52:29;4.60;99.90
37998;DHT22;24079;51.824;4.682;2024-01-27T02:54:55;4.60;99.90
37998;DHT22;24079;51.824;4.682;2024-01-27T02:57:21;4.60;99.90
37998;DHT22;24079;51.824;4.682;2024-01-27T02:59:47;4.60;99.90
37998;DHT22;24079;51.824;4.682;2024-01-27T03:02:12;4.50;99.90
37998;DHT22;24079;51.824;4.682;2024-01-27T03:04:38;4.50;99.90
37998;DHT22;24079;51.824;4.682;2024-01-27T03:07:04;4.50;99.90
37998;DHT22;24079;51.824;4.682;2024-01-27T03:09:30;4.50;99.90
37998;DHT22;24079;51.824;4.682;2024-01-27T03:11:56;4.50;99.90
37998;DHT22;24079;51.824;4.682;2024-01-27T03:14:22;4.50;99.90
37998;DHT22;24079;51.824;4.682;2024-01-27T03:16:48;4.50;99.90
37998;DHT22;24079;51.824;4.682;2024-01-27T03:19:14;4.50;99.90
37998;DHT22;24079;51.824;4.682;2024-01-27T03:21:39;4.40;99.90
37998;DHT22;24079;51.824;4.682;2024-01-27T03:24:05;4.40;99.90
37998;DHT22;24079;51.824;4.682;2024-01-27T03:26:31;4.50;99.90
37998;DHT22;24079;51.824;4.682;2024-01-27T03:28:56;4.40;99.90
37998;DHT22;24079;51.824;4.682;2024-01-27T03:31:23;4.50;99.90
37998;DHT22;24079;51.824;4.682;2024-01-27T03:33:49;4.40;99.90
37998;DHT22;24079;51.824;4.682;2024-01-27T03:36:15;4.30;99.90
37998;DHT22;24079;51.824;4.682;2024-01-27T03:38:41;4.30;99.90
37998;DHT22;24079;51.824;4.682;2024-01-27T03:41:07;4.40;99.90
37998;DHT22;24079;51.824;4.682;2024-01-27T03:43:36;4.40;99.90
37998;DHT22;24079;51.824;4.682;2024-01-27T03:46:01;4.40;99.90
37998;DHT22;24079;51.824;4.682;2024-01-27T03:48:28;4.40;99.90
37998;DHT22;24079;51.824;4.682;2024-01-27T03:50:54;4.30;99.90
37998;DHT22;24079;51.824;4.682;2024-01-27T03:53:19;4.30;99.90
37998;DHT22;24079;51.824;4.682;2024-01-27T03:55:45;4.30;99.90
37998;DHT22;24079;51.824;4.682;2024-01-27T03:58:10;4.40;99.90
37998;DHT22;24079;51.824;4.682;2024-01-27T04:00:36;4.40;99.90
37998;DHT22;24079;51.824;4.682;2024-01-27T04:03:02;4.40;99.90
37998;DHT22;24079;51.824;4.682;2024-01-27T04:05:31;4.50;99.90
37998;DHT22;24079;51.824;4.682;2024-01-27T04:07:56;4.40;99.90
37998;DHT22;24079;51.824;4.682;2024-01-27T04:10:22;4.40;99.90
37998;DHT22;24079;51.824;4.682;2024-01-27T04:12:49;4.30;99.90
37998;DHT22;24079;51.824;4.682;2024-01-27T04:15:15;4.30;99.90
37998;DHT22;24079;51.824;4.682;2024-01-27T04:17:41;4.20;99.90
37998;DHT22;24079;51.824;4.682;2024-01-27T04:20:08;4.30;99.90
37998;DHT22;24079;51.824;4.682;2024-01-27T04:22:34;4.20;99.90
37998;DHT22;24079;51.824;4.682;2024-01-27T04:25:01;4.30;99.90
37998;DHT22;24079;51.824;4.682;2024-01-27T04:27:27;4.20;99.90
37998;DHT22;24079;51.824;4.682;2024-01-27T04:29:53;4.20;99.90
37998;DHT22;24079;51.824;4.682;2024-01-27T04:32:18;4.20;99.90
37998;DHT22;24079;51.824;4.682;2024-01-27T04:34:44;4.20;99.90
37998;DHT22;24079;51.824;4.682;2024-01-27T04:37:10;4.30;99.90
37998;DHT22;24079;51.824;4.682;2024-01-27T04:39:35;4.30;99.90
37998;DHT22;24079;51.824;4.682;2024-01-27T04:42:01;4.20;99.90
37998;DHT22;24079;51.824;4.682;2024-01-27T04:44:27;4.20;99.90
37998;DHT22;24079;51.824;4.682;2024-01-27T04:46:53;4.30;99.90
37998;DHT22;24079;51.824;4.682;2024-01-27T04:49:19;4.30;99.90
37998;DHT22;24079;51.824;4.682;2024-01-27T04:51:45;4.20;99.90
37998;DHT22;24079;51.824;4.682;2024-01-27T04:54:11;4.20;99.90
37998;DHT22;24079;51.824;4.682;2024-01-27T04:56:37;4.20;99.90
37998;DHT22;24079;51.824;4.682;2024-01-27T04:59:02;4.20;99.90
37998;DHT22;24079;51.824;4.682;2024-01-27T05:01:28;4.20;99.90
37998;DHT22;24079;51.824;4.682;2024-01-27T05:03:54;4.20;99.90
37998;DHT22;24079;51.824;4.682;2024-01-27T05:06:21;4.20;99.90
37998;DHT22;24079;51.824;4.682;2024-01-27T05:08:46;4.20;99.90
37998;DHT22;24079;51.824;4.682;2024-01-27T05:11:13;4.20;99.90
37998;DHT22;24079;51.824;4.682;2024-01-27T05:13:40;4.20;99.90
37998;DHT22;24079;51.824;4.682;2024-01-27T05:16:05;4.20;99.90
37998;DHT22;24079;51.824;4.682;2024-01-27T05:18:31;4.20;99.90
37998;DHT22;24079;51.824;4.682;2024-01-27T05:20:57;4.20;99.90
37998;DHT22;24079;51.824;4.682;2024-01-27T05:23:22;4.20;99.90
37998;DHT22;24079;51.824;4.682;2024-01-27T05:25:48;4.20;99.90
37998;DHT22;24079;51.824;4.682;2024-01-27T05:28:14;4.10;99.90
37998;DHT22;24079;51.824;4.682;2024-01-27T05:30:40;4.10;99.90
37998;DHT22;24079;51.824;4.682;2024-01-27T05:33:05;4.10;99.90
37998;DHT22;24079;51.824;4.682;2024-01-27T05:35:31;4.10;99.90
37998;DHT22;24079;51.824;4.682;2024-01-27T05:37:57;4.10;99.90
37998;DHT22;24079;51.824;4.682;2024-01-27T05:40:22;4.10;99.90
37998;DHT22;24079;51.824;4.682;2024-01-27T05:42:48;4.20;99.90
37998;DHT22;24079;51.824;4.682;2024-01-27T05:45:15;4.10;99.90
37998;DHT22;24079;51.824;4.682;2024-01-27T05:47:40;4.10;99.90
37998;DHT22;24079;51.824;4.682;2024-01-27T05:50:06;4.10;99.90
37998;DHT22;24079;51.824;4.682;2024-01-27T05:52:34;4.10;99.90
37998;DHT22;24079;51.824;4.682;2024-01-27T05:55:01;4.00;99.90
37998;DHT22;24079;51.824;4.682;2024-01-27T05:57:26;4.10;99.90
37998;DHT22;24079;51.824;4.682;2024-01-27T05:59:52;4.10;99.90
37998;DHT22;24079;51.824;4.682;2024-01-27T06:02:17;4.00;99.90
37998;DHT22;24079;51.824;4.682;2024-01-27T06:04:43;4.00;99.90
37998;DHT22;24079;51.824;4.682;2024-01-27T06:07:09;4.00;99.90
37998;DHT22;24079;51.824;4.682;2024-01-27T06:09:36;4.00;99.90
37998;DHT22;24079;51.824;4.682;2024-01-27T06:12:02;4.00;99.90
37998;DHT22;24079;51.824;4.682;2024-01-27T06:14:28;4.00;99.90
37998;DHT22;24079;51.824;4.682;2024-01-27T06:16:53;4.00;99.90
37998;DHT22;24079;51.824;4.682;2024-01-27T06:19:19;4.00;99.90
37998;DHT22;24079;51.824;4.682;2024-01-27T06:21:44;4.00;99.90
37998;DHT22;24079;51.824;4.682;2024-01-27T06:24:13;4.00;99.90
37998;DHT22;24079;51.824;4.682;2024-01-27T06:26:39;4.10;99.90
37998;DHT22;24079;51.824;4.682;2024-01-27T06:29:05;4.00;99.90
37998;DHT22;24079;51.824;4.682;2024-01-27T06:31:31;4.00;99.90
37998;DHT22;24079;51.824;4.682;2024-01-27T06:33:57;4.00;99.90
37998;DHT22;24079;51.824;4.682;2024-01-27T06:36:23;4.00;99.90
37998;DHT22;24079;51.824;4.682;2024-01-27T06:38:53;4.10;99.90
37998;DHT22;24079;51.824;4.682;2024-01-27T06:41:19;4.00;99.90
37998;DHT22;24079;51.824;4.682;2024-01-27T06:43:45;4.00;99.90
37998;DHT22;24079;51.824;4.682;2024-01-27T06:46:11;4.00;99.90
37998;DHT22;24079;51.824;4.682;2024-01-27T06:48:37;4.00;99.90
37998;DHT22;24079;51.824;4.682;2024-01-27T06:51:04;4.00;99.90
37998;DHT22;24079;51.824;4.682;2024-01-27T06:53:30;4.00;99.90
37998;DHT22;24079;51.824;4.682;2024-01-27T06:55:56;4.00;99.90
37998;DHT22;24079;51.824;4.682;2024-01-27T06:58:21;4.00;99.90
37998;DHT22;24079;51.824;4.682;2024-01-27T07:00:47;3.90;99.90
37998;DHT22;24079;51.824;4.682;2024-01-27T07:03:13;3.90;99.90
37998;DHT22;24079;51.824;4.682;2024-01-27T07:05:39;3.90;99.90
37998;DHT22;24079;51.824;4.682;2024-01-27T07:08:07;3.80;99.90
37998;DHT22;24079;51.824;4.682;2024-01-27T07:10:34;3.90;99.90
37998;DHT22;24079;51.824;4.682;2024-01-27T07:13:00;3.90;99.90
37998;DHT22;24079;51.824;4.682;2024-01-27T07:15:26;3.90;99.90
37998;DHT22;24079;51.824;4.682;2024-01-27T07:17:53;3.90;99.90
37998;DHT22;24079;51.824;4.682;2024-01-27T07:20:19;3.80;99.90
37998;DHT22;24079;51.824;4.682;2024-01-27T07:22:49;3.80;99.90
37998;DHT22;24079;51.824;4.682;2024-01-27T07:25:15;3.90;99.90
37998;DHT22;24079;51.824;4.682;2024-01-27T07:27:41;3.80;99.90
37998;DHT22;24079;51.824;4.682;2024-01-27T07:30:08;3.80;99.90
37998;DHT22;24079;51.824;4.682;2024-01-27T07:32:36;3.80;99.90
37998;DHT22;24079;51.824;4.682;2024-01-27T07:35:02;3.80;99.90
37998;DHT22;24079;51.824;4.682;2024-01-27T07:37:28;3.90;99.90
37998;DHT22;24079;51.824;4.682;2024-01-27T07:39:53;3.90;99.90
37998;DHT22;24079;51.824;4.682;2024-01-27T07:42:19;3.80;99.90
37998;DHT22;24079;51.824;4.682;2024-01-27T07:44:45;3.80;99.90
37998;DHT22;24079;51.824;4.682;2024-01-27T07:47:10;3.80;99.90
37998;DHT22;24079;51.824;4.682;2024-01-27T07:49:36;3.90;99.90
37998;DHT22;24079;51.824;4.682;2024-01-27T07:52:01;4.00;99.90
37998;DHT22;24079;51.824;4.682;2024-01-27T07:54:27;3.90;99.90
37998;DHT22;24079;51.824;4.682;2024-01-27T07:56:55;4.10;99.90
37998;DHT22;24079;51.824;4.682;2024-01-27T07:59:20;4.00;99.90
37998;DHT22;24079;51.824;4.682;2024-01-27T08:01:46;4.00;99.90
37998;DHT22;24079;51.824;4.682;2024-01-27T08:04:12;4.00;99.90
37998;DHT22;24079;51.824;4.682;2024-01-27T08:06:49;4.00;99.90
37998;DHT22;24079;51.824;4.682;2024-01-27T08:09:15;4.10;99.90
37998;DHT22;24079;51.824;4.682;2024-01-27T08:11:41;4.00;99.90
37998;DHT22;24079;51.824;4.682;2024-01-27T08:14:06;4.00;99.90
37998;DHT22;24079;51.824;4.682;2024-01-27T08:16:32;4.10;99.90
37998;DHT22;24079;51.824;4.682;2024-01-27T08:18:57;4.10;99.90
37998;DHT22;24079;51.824;4.682;2024-01-27T08:21:23;4.20;99.90
37998;DHT22;24079;51.824;4.682;2024-01-27T08:23:49;4.30;99.90
37998;DHT22;24079;51.824;4.682;2024-01-27T08:26:14;4.20;99.90
37998;DHT22;24079;51.824;4.682;2024-01-27T08:28:40;4.30;99.90
37998;DHT22;24079;51.824;4.682;2024-01-27T08:31:06;4.20;99.90
37998;DHT22;24079;51.824;4.682;2024-01-27T08:33:33;4.40;99.90
37998;DHT22;24079;51.824;4.682;2024-01-27T08:35:59;4.50;99.90
37998;DHT22;24079;51.824;4.682;2024-01-27T08:38:24;4.50;99.90
37998;DHT22;24079;51.824;4.682;2024-01-27T08:40:50;4.50;99.90
37998;DHT22;24079;51.824;4.682;2024-01-27T08:43:15;4.60;99.90
37998;DHT22;24079;51.824;4.682;2024-01-27T08:45:41;4.50;99.90
37998;DHT22;24079;51.824;4.682;2024-01-27T08:48:07;4.60;99.90
37998;DHT22;24079;51.824;4.682;2024-01-27T08:50:33;4.60;99.90
37998;DHT22;24079;51.824;4.682;2024-01-27T08:52:58;4.70;99.90
37998;DHT22;24079;51.824;4.682;2024-01-27T08:55:24;4.70;99.90
37998;DHT22;24079;51.824;4.682;2024-01-27T08:57:51;4.60;99.90
37998;DHT22;24079;51.824;4.682;2024-01-27T09:00:17;4.80;99.90
37998;DHT22;24079;51.824;4.682;2024-01-27T09:02:43;4.70;99.90
37998;DHT22;24079;51.824;4.682;2024-01-27T09:05:08;4.80;99.90
37998;DHT22;24079;51.824;4.682;2024-01-27T09:07:35;4.90;99.90
37998;DHT22;24079;51.824;4.682;2024-01-27T09:10:02;5.00;99.90
37998;DHT22;24079;51.824;4.682;2024-01-27T09:12:28;4.90;99.90
37998;DHT22;24079;51.824;4.682;2024-01-27T09:14:54;4.90;99.90
37998;DHT22;24079;51.824;4.682;2024-01-27T09:17:20;5.00;99.90
37998;DHT22;24079;51.824;4.682;2024-01-27T09:19:46;4.90;99.90
37998;DHT22;24079;51.824;4.682;2024-01-27T09:22:12;4.90;99.90
37998;DHT22;24079;51.824;4.682;2024-01-27T09:24:38;5.10;99.90
37998;DHT22;24079;51.824;4.682;2024-01-27T09:27:04;5.20;99.90
37998;DHT22;24079;51.824;4.682;2024-01-27T09:29:30;5.20;99.90
37998;DHT22;24079;51.824;4.682;2024-01-27T09:31:56;5.30;99.90
37998;DHT22;24079;51.824;4.682;2024-01-27T09:34:21;5.20;99.90
37998;DHT22;24079;51.824;4.682;2024-01-27T09:36:47;5.30;99.90
37998;DHT22;24079;51.824;4.682;2024-01-27T09:39:13;5.30;99.90
37998;DHT22;24079;51.824;4.682;2024-01-27T09:41:38;5.40;99.90
37998;DHT22;24079;51.824;4.682;2024-01-27T09:44:04;5.40;99.90
37998;DHT22;24079;51.824;4.682;2024-01-27T09:46:31;5.60;99.90
37998;DHT22;24079;51.824;4.682;2024-01-27T09:48:58;5.60;99.90
37998;DHT22;24079;51.824;4.682;2024-01-27T09:51:25;5.60;99.90
37998;DHT22;24079;51.824;4.682;2024-01-27T09:53:54;5.80;99.90
37998;DHT22;24079;51.824;4.682;2024-01-27T09:56:20;5.80;99.90
37998;DHT22;24079;51.824;4.682;2024-01-27T09:58:47;5.90;99.90
37998;DHT22;24079;51.824;4.682;2024-01-27T10:01:16;5.90;99.90
37998;DHT22;24079;51.824;4.682;2024-01-27T10:03:46;6.00;99.90
37998;DHT22;24079;51.824;4.682;2024-01-27T10:06:12;6.10;99.90
37998;DHT22;24079;51.824;4.682;2024-01-27T10:08:39;6.20;99.90
37998;DHT22;24079;51.824;4.682;2024-01-27T10:11:09;6.30;99.90
37998;DHT22;24079;51.824;4.682;2024-01-27T10:13:36;6.40;99.90
37998;DHT22;24079;51.824;4.682;2024-01-27T10:16:02;6.50;99.90
37998;DHT22;24079;51.824;4.682;2024-01-27T10:18:31;6.50;99.90
37998;DHT22;24079;51.824;4.682;2024-01-27T10:20:57;6.40;99.90
37998;DHT22;24079;51.824;4.682;2024-01-27T10:23:23;6.50;99.90
37998;DHT22;24079;51.824;4.682;2024-01-27T10:25:50;6.50;99.90
37998;DHT22;24079;51.824;4.682;2024-01-27T10:28:16;6.70;99.90
37998;DHT22;24079;51.824;4.682;2024-01-27T10:30:43;6.70;99.90
37998;DHT22;24079;51.824;4.682;2024-01-27T10:33:09;6.70;99.90
37998;DHT22;24079;51.824;4.682;2024-01-27T10:35:44;6.80;99.90
37998;DHT22;24079;51.824;4.682;2024-01-27T10:38:11;6.90;99.90
37998;DHT22;24079;51.824;4.682;2024-01-27T10:40:37;6.90;99.90
37998;DHT22;24079;51.824;4.682;2024-01-27T10:43:04;7.00;99.90
37998;DHT22;24079;51.824;4.682;2024-01-27T10:45:39;7.10;99.90
37998;DHT22;24079;51.824;4.682;2024-01-27T10:48:06;7.10;99.90
37998;DHT22;24079;51.824;4.682;2024-01-27T10:50:37;7.30;99.90
37998;DHT22;24079;51.824;4.682;2024-01-27T10:53:08;7.30;99.90
37998;DHT22;24079;51.824;4.682;2024-01-27T10:55:34;7.30;99.90
37998;DHT22;24079;51.824;4.682;2024-01-27T10:58:03;7.30;99.90
37998;DHT22;24079;51.824;4.682;2024-01-27T11:00:29;7.40;99.90
37998;DHT22;24079;51.824;4.682;2024-01-27T11:03:02;7.40;99.90
37998;DHT22;24079;51.824;4.682;2024-01-27T11:05:28;7.50;99.90
37998;DHT22;24079;51.824;4.682;2024-01-27T11:07:55;7.50;99.90
37998;DHT22;24079;51.824;4.682;2024-01-27T11:10:22;7.50;99.90
37998;DHT22;24079;51.824;4.682;2024-01-27T11:12:49;7.40;99.90
37998;DHT22;24079;51.824;4.682;2024-01-27T11:15:15;7.50;99.90
37998;DHT22;24079;51.824;4.682;2024-01-27T11:17:41;7.50;99.90
37998;DHT22;24079;51.824;4.682;2024-01-27T11:20:11;7.50;99.90
37998;DHT22;24079;51.824;4.682;2024-01-27T11:22:37;7.60;99.90
37998;DHT22;24079;51.824;4.682;2024-01-27T11:27:41;7.60;99.90
37998;DHT22;24079;51.824;4.682;2024-01-27T11:30:28;7.70;99.90
37998;DHT22;24079;51.824;4.682;2024-01-27T11:32:57;7.80;99.90
37998;DHT22;24079;51.824;4.682;2024-01-27T11:35:26;7.80;99.90
37998;DHT22;24079;51.824;4.682;2024-01-27T11:37:53;7.80;99.90
37998;DHT22;24079;51.824;4.682;2024-01-27T11:40:19;7.80;99.90
37998;DHT22;24079;51.824;4.682;2024-01-27T11:43:01;7.80;99.90
37998;DHT22;24079;51.824;4.682;2024-01-27T11:45:28;7.80;99.90
37998;DHT22;24079;51.824;4.682;2024-01-27T11:47:55;7.80;99.90
37998;DHT22;24079;51.824;4.682;2024-01-27T11:50:21;7.90;99.90
37998;DHT22;24079;51.824;4.682;2024-01-27T11:52:47;7.90;99.90
37998;DHT22;24079;51.824;4.682;2024-01-27T11:55:13;7.90;99.90
37998;DHT22;24079;51.824;4.682;2024-01-27T11:57:41;8.00;99.90
37998;DHT22;24079;51.824;4.682;2024-01-27T12:00:07;8.00;99.90
37998;DHT22;24079;51.824;4.682;2024-01-27T12:02:35;8.00;99.90
37998;DHT22;24079;51.824;4.682;2024-01-27T12:05:01;8.00;99.90
37998;DHT22;24079;51.824;4.682;2024-01-27T12:07:27;8.00;99.90
37998;DHT22;24079;51.824;4.682;2024-01-27T12:09:52;8.10;99.90
37998;DHT22;24079;51.824;4.682;2024-01-27T12:12:18;8.10;99.90
37998;DHT22;24079;51.824;4.682;2024-01-27T12:14:48;8.10;99.90
37998;DHT22;24079;51.824;4.682;2024-01-27T12:17:15;8.20;99.90
37998;DHT22;24079;51.824;4.682;2024-01-27T12:19:49;8.20;99.90
37998;DHT22;24079;51.824;4.682;2024-01-27T12:22:27;8.20;99.90
37998;DHT22;24079;51.824;4.682;2024-01-27T12:24:53;8.30;99.90
37998;DHT22;24079;51.824;4.682;2024-01-27T12:27:19;8.30;99.90
37998;DHT22;24079;51.824;4.682;2024-01-27T12:29:48;8.40;99.90
37998;DHT22;24079;51.824;4.682;2024-01-27T12:32:15;8.30;99.90
37998;DHT22;24079;51.824;4.682;2024-01-27T12:34:44;8.30;99.90
37998;DHT22;24079;51.824;4.682;2024-01-27T12:37:13;8.20;99.90
37998;DHT22;24079;51.824;4.682;2024-01-27T12:39:43;8.30;99.90
37998;DHT22;24079;51.824;4.682;2024-01-27T12:42:12;8.20;99.90
37998;DHT22;24079;51.824;4.682;2024-01-27T12:44:41;8.30;99.90
37998;DHT22;24079;51.824;4.682;2024-01-27T12:47:07;8.30;99.90
37998;DHT22;24079;51.824;4.682;2024-01-27T12:49:35;8.40;99.90
37998;DHT22;24079;51.824;4.682;2024-01-27T12:52:00;8.40;99.90
37998;DHT22;24079;51.824;4.682;2024-01-27T12:54:26;8.30;99.90
37998;DHT22;24079;51.824;4.682;2024-01-27T12:56:52;8.40;99.90
37998;DHT22;24079;51.824;4.682;2024-01-27T12:59:18;8.40;99.90
37998;DHT22;24079;51.824;4.682;2024-01-27T13:01:43;8.50;99.90
37998;DHT22;24079;51.824;4.682;2024-01-27T13:04:09;8.60;99.90
37998;DHT22;24079;51.824;4.682;2024-01-27T13:06:35;8.60;99.90
37998;DHT22;24079;51.824;4.682;2024-01-27T13:09:01;8.50;99.90
37998;DHT22;24079;51.824;4.682;2024-01-27T13:11:27;8.60;99.90
37998;DHT22;24079;51.824;4.682;2024-01-27T13:13:52;8.60;99.90
37998;DHT22;24079;51.824;4.682;2024-01-27T13:16:18;8.50;99.90
37998;DHT22;24079;51.824;4.682;2024-01-27T13:18:44;8.60;99.90
37998;DHT22;24079;51.824;4.682;2024-01-27T13:21:11;8.60;99.90
37998;DHT22;24079;51.824;4.682;2024-01-27T13:23:37;8.60;99.90
37998;DHT22;24079;51.824;4.682;2024-01-27T13:26:03;8.60;99.90
37998;DHT22;24079;51.824;4.682;2024-01-27T13:28:28;8.70;99.90
37998;DHT22;24079;51.824;4.682;2024-01-27T13:30:54;8.60;99.90
37998;DHT22;24079;51.824;4.682;2024-01-27T13:33:20;8.60;99.90
37998;DHT22;24079;51.824;4.682;2024-01-27T13:35:47;8.70;99.90
37998;DHT22;24079;51.824;4.682;2024-01-27T13:38:13;8.60;99.90
37998;DHT22;24079;51.824;4.682;2024-01-27T13:40:39;8.50;99.90
37998;DHT22;24079;51.824;4.682;2024-01-27T13:43:05;8.50;99.90
37998;DHT22;24079;51.824;4.682;2024-01-27T13:45:31;8.50;99.90
37998;DHT22;24079;51.824;4.682;2024-01-27T13:47:58;8.60;99.90
37998;DHT22;24079;51.824;4.682;2024-01-27T13:50:23;8.60;99.90
37998;DHT22;24079;51.824;4.682;2024-01-27T13:52:51;8.50;99.90
37998;DHT22;24079;51.824;4.682;2024-01-27T13:55:17;8.40;99.90
37998;DHT22;24079;51.824;4.682;2024-01-27T13:57:43;8.40;99.90
37998;DHT22;24079;51.824;4.682;2024-01-27T14:00:10;8.40;99.90
37998;DHT22;24079;51.824;4.682;2024-01-27T14:02:36;8.40;99.90
37998;DHT22;24079;51.824;4.682;2024-01-27T14:05:02;8.40;99.90
37998;DHT22;24079;51.824;4.682;2024-01-27T14:07:29;8.30;99.90
37998;DHT22;24079;51.824;4.682;2024-01-27T14:09:55;8.30;99.90
37998;DHT22;24079;51.824;4.682;2024-01-27T14:12:20;8.30;99.90
37998;DHT22;24079;51.824;4.682;2024-01-27T14:14:46;8.30;99.90
37998;DHT22;24079;51.824;4.682;2024-01-27T14:17:12;8.30;99.90
37998;DHT22;24079;51.824;4.682;2024-01-27T14:19:37;8.30;99.90
37998;DHT22;24079;51.824;4.682;2024-01-27T14:22:03;8.30;99.90
37998;DHT22;24079;51.824;4.682;2024-01-27T14:24:29;8.30;99.90
37998;DHT22;24079;51.824;4.682;2024-01-27T14:26:55;8.30;99.90
37998;DHT22;24079;51.824;4.682;2024-01-27T14:29:21;8.20;99.90
37998;DHT22;24079;51.824;4.682;2024-01-27T14:31:46;8.20;99.90
37998;DHT22;24079;51.824;4.682;2024-01-27T14:34:12;8.20;99.90
37998;DHT22;24079;51.824;4.682;2024-01-27T14:36:39;8.30;99.90
37998;DHT22;24079;51.824;4.682;2024-01-27T14:39:06;8.20;99.90
37998;DHT22;24079;51.824;4.682;2024-01-27T14:41:37;8.20;99.90
37998;DHT22;24079;51.824;4.682;2024-01-27T14:44:03;8.30;99.90
37998;DHT22;24079;51.824;4.682;2024-01-27T14:46:29;8.30;99.90
37998;DHT22;24079;51.824;4.682;2024-01-27T14:48:54;8.30;99.90
37998;DHT22;24079;51.824;4.682;2024-01-27T14:51:20;8.20;99.90
37998;DHT22;24079;51.824;4.682;2024-01-27T14:53:48;8.20;99.90
37998;DHT22;24079;51.824;4.682;2024-01-27T14:56:14;8.20;99.90
37998;DHT22;24079;51.824;4.682;2024-01-27T14:58:40;8.30;99.90
37998;DHT22;24079;51.824;4.682;2024-01-27T15:01:06;8.40;99.90
37998;DHT22;24079;51.824;4.682;2024-01-27T15:03:31;8.30;99.90
37998;DHT22;24079;51.824;4.682;2024-01-27T15:05:58;8.30;99.90
37998;DHT22;24079;51.824;4.682;2024-01-27T15:08:23;8.30;99.90
37998;DHT22;24079;51.824;4.682;2024-01-27T15:10:49;8.30;99.90
37998;DHT22;24079;51.824;4.682;2024-01-27T15:13:15;8.30;99.90
37998;DHT22;24079;51.824;4.682;2024-01-27T15:15:45;8.30;99.90
37998;DHT22;24079;51.824;4.682;2024-01-27T15:18:11;8.20;99.90
37998;DHT22;24079;51.824;4.682;2024-01-27T15:20:38;8.20;99.90
37998;DHT22;24079;51.824;4.682;2024-01-27T15:23:03;8.20;99.90
37998;DHT22;24079;51.824;4.682;2024-01-27T15:25:29;8.20;99.90
37998;DHT22;24079;51.824;4.682;2024-01-27T15:27:56;8.20;99.90
37998;DHT22;24079;51.824;4.682;2024-01-27T15:30:22;8.10;99.90
37998;DHT22;24079;51.824;4.682;2024-01-27T15:32:48;8.10;99.90
37998;DHT22;24079;51.824;4.682;2024-01-27T15:35:14;8.00;99.90
37998;DHT22;24079;51.824;4.682;2024-01-27T15:37:39;8.00;99.90
37998;DHT22;24079;51.824;4.682;2024-01-27T15:40:06;7.90;99.90
37998;DHT22;24079;51.824;4.682;2024-01-27T15:42:32;8.00;99.90